Time;durP1;ratioP1;P1;durP2;ratioP2;P2;SDS_P1;SDS_P2;PMS_P1;PMS_P2;Temp;Humidity;BMP_temperature;BMP_pressure;BME280_temperature;BME280_humidity;BME280_pressure;Samples;Min_cycle;Max_cycle;Signal;HPM_P1;HPM_P2
2022/08/01 00:02:05;;;;;;;;;;;;;;;25.05;81.19;96800.00;605300;234;68576;-63
2022/08/01 00:04:33;;;;;;;;;;;;;;;25.05;81.16;96801.90;605369;234;68665;-64
2022/08/01 00:07:00;;;;;;;;;;;;;;;25.04;81.05;96793.02;605306;234;64946;-63
2022/08/01 00:09:28;;;;;;;;;;;;;;;25.05;81.07;96793.83;605287;234;68703;-63
2022/08/01 00:11:55;;;;;;;;;;;;;;;25.05;80.96;96794.63;605347;234;68673;-63
2022/08/01 00:14:23;;;;;;;;;;;;;;;25.05;80.95;96796.52;605332;234;65224;-63
2022/08/01 00:16:50;;;;;;;;;;;;;;;25.05;80.96;96788.45;605339;234;69505;-63
2022/08/01 00:19:18;;;;;;;;;;;;;;;25.05;80.93;96796.52;605347;234;76508;-63
2022/08/01 00:21:45;;;;;;;;;;;;;;;25.05;80.89;96791.94;605291;234;62673;-63
2022/08/01 00:24:13;;;;;;;;;;;;;;;25.03;80.85;96780.68;605356;234;66619;-63
2022/08/01 00:26:40;;;;;;;;;;;;;;;25.03;80.75;96778.78;605308;234;69376;-63
2022/08/01 00:29:08;;;;;;;;;;;;;;;25.04;80.87;96776.87;605327;234;62762;-63
2022/08/01 00:31:35;;;;;;;;;;;;;;;25.03;80.80;96765.34;605370;234;66416;-63
2022/08/01 00:34:03;;;;;;;;;;;;;;;25.03;80.81;96768.03;605302;234;68870;-64
2022/08/01 00:36:30;;;;;;;;;;;;;;;25.04;80.78;96771.50;605261;234;62735;-63
2022/08/01 00:38:58;;;;;;;;;;;;;;;25.05;80.71;96764.26;605348;234;68983;-63
2022/08/01 00:41:25;;;;;;;;;;;;;;;25.03;80.75;96769.92;605303;234;68539;-63
2022/08/01 00:43:54;;;;;;;;;;;;;;;25.03;80.62;96765.34;605350;234;65027;-63
2022/08/01 00:46:21;;;;;;;;;;;;;;;25.03;80.63;96769.92;605321;234;68852;-63
2022/08/01 00:48:49;;;;;;;;;;;;;;;25.02;80.56;96774.52;605236;234;69665;-64
2022/08/01 00:51:17;;;;;;;;;;;;;;;25.02;80.62;96768.34;605365;234;66029;-63
2022/08/01 00:53:44;;;;;;;;;;;;;;;25.03;80.60;96773.41;605311;234;68779;-63
2022/08/01 00:56:13;;;;;;;;;;;;;;;25.02;80.50;96771.83;600886;234;66476;-63
2022/08/01 00:58:41;;;;;;;;;;;;;;;25.02;80.59;96763.76;595205;238;64990;-63
2022/08/01 01:01:08;;;;;;;;;;;;;;;25.01;80.49;96756.77;595283;238;68643;-62
2022/08/01 01:03:37;;;;;;;;;;;;;;;25.02;80.49;96761.07;595193;236;47389;-62
2022/08/01 01:06:12;;;;;;;;;;;;;;;25.01;80.45;96761.36;595267;238;64860;-62
2022/08/01 01:08:41;;;;;;;;;;;;;;;25.01;80.46;96754.08;594884;238;68347;-63
2022/08/01 01:11:10;;;;;;;;;;;;;;;25.01;80.33;96754.08;595303;238;69387;-62
2022/08/01 01:13:39;;;;;;;;;;;;;;;25.01;80.43;96756.77;595132;237;63026;-62
2022/08/01 01:16:08;;;;;;;;;;;;;;;25.01;80.31;96755.98;595237;236;66154;-62
2022/08/01 01:18:37;;;;;;;;;;;;;;;24.99;80.28;96750.92;595229;236;66182;-62
2022/08/01 01:21:06;;;;;;;;;;;;;;;25.01;80.17;96753.30;595249;238;62988;-62
2022/08/01 01:23:54;;;;;;;;;;;;;;;25.00;80.19;96754.41;595259;237;65825;-62
2022/08/01 01:26:26;;;;;;;;;;;;;;;25.00;80.10;96749.03;595293;238;66536;-62
2022/08/01 01:28:55;;;;;;;;;;;;;;;25.00;80.02;96743.66;595163;237;65219;-62
2022/08/01 01:31:24;;;;;;;;;;;;;;;24.99;80.03;96732.11;595274;238;66153;-63
2022/08/01 01:33:53;;;;;;;;;;;;;;;24.97;79.94;96734.30;595206;238;68506;-63
2022/08/01 01:36:22;;;;;;;;;;;;;;;24.99;79.95;96736.66;595268;238;64911;-62
2022/08/01 01:38:51;;;;;;;;;;;;;;;24.98;79.83;96730.50;595243;238;69002;-63
2022/08/01 01:41:19;;;;;;;;;;;;;;;24.98;79.88;96730.50;595248;238;68935;-62
2022/08/01 01:43:47;;;;;;;;;;;;;;;24.97;79.77;96720.06;595234;238;64949;-62
2022/08/01 01:46:16;;;;;;;;;;;;;;;24.98;79.79;96724.33;595254;238;68606;-62
2022/08/01 01:48:45;;;;;;;;;;;;;;;24.98;79.71;96718.95;595265;238;68560;-62
2022/08/01 01:51:14;;;;;;;;;;;;;;;24.97;79.75;96718.17;595301;238;63895;-62
2022/08/01 01:53:42;;;;;;;;;;;;;;;24.97;79.63;96712.00;595304;238;66451;-62
2022/08/01 01:56:10;;;;;;;;;;;;;;;24.97;79.67;96707.41;599524;234;66699;-62
2022/08/01 01:58:39;;;;;;;;;;;;;;;24.97;79.60;96704.73;605325;234;65099;-62
2022/08/01 02:01:07;;;;;;;;;;;;;;;24.97;79.66;96707.41;605284;234;68840;-62
2022/08/01 02:03:36;;;;;;;;;;;;;;;24.97;79.62;96703.94;605341;234;68555;-62
2022/08/01 02:06:04;;;;;;;;;;;;;;;24.96;79.50;96708.52;605336;234;65063;-63
2022/08/01 02:08:33;;;;;;;;;;;;;;;24.97;79.58;96703.94;605383;234;68794;-62
2022/08/01 02:11:21;;;;;;;;;;;;;;;24.96;79.49;96699.64;605348;234;68602;-62
2022/08/01 02:13:56;;;;;;;;;;;;;;;24.96;79.46;96699.64;605362;234;62869;-62
2022/08/01 02:16:25;;;;;;;;;;;;;;;24.96;79.45;96694.27;605366;234;66401;-62
2022/08/01 02:18:52;;;;;;;;;;;;;;;24.94;79.43;96697.27;605348;234;68489;-62
2022/08/01 02:21:21;;;;;;;;;;;;;;;24.95;79.33;96696.16;605409;234;64874;-62
2022/08/01 02:23:50;;;;;;;;;;;;;;;24.94;79.37;96689.20;605298;234;66454;-62
2022/08/01 02:26:18;;;;;;;;;;;;;;;24.95;79.27;96701.54;605311;234;68873;-61
2022/08/01 02:28:50;;;;;;;;;;;;;;;24.95;79.29;96698.85;605340;234;64908;-62
2022/08/01 02:31:19;;;;;;;;;;;;;;;24.95;79.29;96693.47;604888;234;69130;-62
2022/08/01 02:33:48;;;;;;;;;;;;;;;24.96;79.27;96691.58;605333;234;66458;-62
2022/08/01 02:36:17;;;;;;;;;;;;;;;24.95;79.19;96698.06;605219;234;64919;-62
2022/08/01 02:38:46;;;;;;;;;;;;;;;24.94;79.13;96694.59;605306;234;68831;-62
2022/08/01 02:41:15;;;;;;;;;;;;;;;24.94;79.08;96686.52;605292;234;66598;-62
2022/08/01 02:43:44;;;;;;;;;;;;;;;24.94;79.09;96691.90;605226;234;64090;-62
2022/08/01 02:46:13;;;;;;;;;;;;;;;24.93;79.06;96679.53;605291;234;68306;-62
2022/08/01 02:48:42;;;;;;;;;;;;;;;24.93;78.98;96684.91;605018;234;66375;-62
2022/08/01 02:51:11;;;;;;;;;;;;;;;24.92;79.00;96686.02;605247;234;62675;-63
2022/08/01 02:53:40;;;;;;;;;;;;;;;24.94;78.96;96683.05;605296;234;69092;-62
2022/08/01 02:56:09;;;;;;;;;;;;;;;24.92;78.91;96677.96;601027;234;68707;-65
2022/08/01 02:58:37;;;;;;;;;;;;;;;24.92;78.91;96680.64;595281;238;65073;-63
2022/08/01 03:01:06;;;;;;;;;;;;;;;24.92;78.84;96677.17;595276;238;66343;-63
2022/08/01 03:03:34;;;;;;;;;;;;;;;24.91;78.77;96676.38;595297;238;68707;-63
2022/08/01 03:06:02;;;;;;;;;;;;;;;24.92;78.79;96682.55;595232;238;62780;-63
2022/08/01 03:08:31;;;;;;;;;;;;;;;24.91;78.69;96679.07;595267;238;66676;-63
2022/08/01 03:11:00;;;;;;;;;;;;;;;24.91;78.63;96676.38;595264;238;68565;-65
2022/08/01 03:13:29;;;;;;;;;;;;;;;24.91;78.67;96681.76;595347;238;65189;-64
2022/08/01 03:15:57;;;;;;;;;;;;;;;24.90;78.51;96673.98;595250;238;68597;-64
2022/08/01 03:18:26;;;;;;;;;;;;;;;24.90;78.53;96680.15;595261;238;66448;-64
2022/08/01 03:20:55;;;;;;;;;;;;;;;24.91;78.50;96673.70;595244;238;65184;-64
2022/08/01 03:23:23;;;;;;;;;;;;;;;24.90;78.43;96672.09;595256;238;68620;-64
2022/08/01 03:25:52;;;;;;;;;;;;;;;24.89;78.40;96667.82;595263;238;66420;-64
2022/08/01 03:28:21;;;;;;;;;;;;;;;24.90;78.35;96672.09;595321;238;64957;-64
2022/08/01 03:30:50;;;;;;;;;;;;;;;24.90;78.37;96674.77;595236;238;66616;-64
2022/08/01 03:33:18;;;;;;;;;;;;;;;24.89;78.32;96669.72;595296;238;68319;-64
2022/08/01 03:35:47;;;;;;;;;;;;;;;24.89;78.33;96675.09;595292;238;65050;-64
2022/08/01 03:38:16;;;;;;;;;;;;;;;24.88;78.31;96674.30;595242;238;68792;-64
2022/08/01 03:41:00;;;;;;;;;;;;;;;24.88;78.18;96674.30;595285;238;69442;-64
2022/08/01 03:43:33;;;;;;;;;;;;;;;24.89;78.21;96673.20;595286;236;62787;-64
2022/08/01 03:46:03;;;;;;;;;;;;;;;24.87;78.16;96675.38;595033;237;66504;-64
2022/08/01 03:48:32;;;;;;;;;;;;;;;24.88;78.20;96687.75;595277;238;68554;-64
2022/08/01 03:51:00;;;;;;;;;;;;;;;24.87;78.22;96678.08;595274;238;66116;-64
2022/08/01 03:53:29;;;;;;;;;;;;;;;24.87;78.07;96671.91;595250;238;68767;-63
2022/08/01 03:55:56;;;;;;;;;;;;;;;24.85;78.07;96669.52;598662;234;67442;-62
2022/08/01 03:58:24;;;;;;;;;;;;;;;24.87;78.05;96669.22;605303;234;63036;-62
2022/08/01 04:00:52;;;;;;;;;;;;;;;24.85;77.97;96680.27;605318;234;66131;-62
2022/08/01 04:03:19;;;;;;;;;;;;;;;24.86;77.92;96681.88;605326;234;68870;-62
2022/08/01 04:05:47;;;;;;;;;;;;;;;24.86;78.00;96684.56;605275;234;64982;-62
2022/08/01 04:08:14;;;;;;;;;;;;;;;24.86;78.02;96678.39;605348;234;66525;-62
2022/08/01 04:10:42;;;;;;;;;;;;;;;24.85;77.90;96666.83;605322;234;66348;-62
2022/08/01 04:13:10;;;;;;;;;;;;;;;24.85;77.92;96664.14;605301;234;62743;-62
2022/08/01 04:15:37;;;;;;;;;;;;;;;24.85;77.88;96666.03;605305;234;69075;-62
2022/08/01 04:18:06;;;;;;;;;;;;;;;24.85;77.73;96655.28;605304;234;68734;-62
2022/08/01 04:20:34;;;;;;;;;;;;;;;24.85;77.80;96661.45;605362;234;62764;-62
2022/08/01 04:23:01;;;;;;;;;;;;;;;24.84;77.67;96665.25;605334;234;66413;-63
2022/08/01 04:25:31;;;;;;;;;;;;;;;24.85;77.65;96666.03;605262;234;68964;-62
2022/08/01 04:28:00;;;;;;;;;;;;;;;24.84;77.68;96667.14;605320;234;65064;-62
2022/08/01 04:30:32;;;;;;;;;;;;;;;24.85;77.68;96666.83;605270;234;68637;-63
2022/08/01 04:33:00;;;;;;;;;;;;;;;24.84;77.78;96667.14;605291;234;66693;-62
2022/08/01 04:35:29;;;;;;;;;;;;;;;24.85;77.80;96666.83;605298;234;65022;-62
2022/08/01 04:37:57;;;;;;;;;;;;;;;24.84;77.73;96665.25;605247;234;66722;-63
2022/08/01 04:40:26;;;;;;;;;;;;;;;24.84;77.76;96664.45;605278;234;66377;-62
2022/08/01 04:42:53;;;;;;;;;;;;;;;24.84;77.77;96662.56;605312;234;64955;-62
2022/08/01 04:45:22;;;;;;;;;;;;;;;24.84;77.59;96659.08;605308;234;69011;-62
2022/08/01 04:47:50;;;;;;;;;;;;;;;24.84;77.76;96664.45;605393;234;68260;-63
2022/08/01 04:50:18;;;;;;;;;;;;;;;24.83;77.85;96652.10;605363;234;65098;-62
2022/08/01 04:52:45;;;;;;;;;;;;;;;24.83;77.74;96666.36;605278;234;68851;-63
2022/08/01 04:55:13;;;;;;;;;;;;;;;24.84;77.75;96664.45;605243;234;68797;-63
2022/08/01 04:57:42;;;;;;;;;;;;;;;24.82;77.78;96656.69;605320;234;63691;-63
2022/08/01 05:00:10;;;;;;;;;;;;;;;24.83;77.73;96652.10;605332;234;66329;-63
2022/08/01 05:02:38;;;;;;;;;;;;;;;24.82;77.60;96651.31;605302;234;66647;-63
2022/08/01 05:05:06;;;;;;;;;;;;;;;24.83;77.72;96652.92;605288;234;62740;-63
2022/08/01 05:07:35;;;;;;;;;;;;;;;24.83;77.60;96657.48;605286;234;68828;-62
2022/08/01 05:10:04;;;;;;;;;;;;;;;24.82;77.71;96667.44;605322;234;68274;-62
2022/08/01 05:12:32;;;;;;;;;;;;;;;24.82;77.63;96662.06;605132;234;64904;-62
2022/08/01 05:15:00;;;;;;;;;;;;;;;24.81;77.59;96658.58;605375;234;68102;-62
2022/08/01 05:17:27;;;;;;;;;;;;;;;24.81;77.71;96661.27;605357;234;68405;-62
2022/08/01 05:19:55;;;;;;;;;;;;;;;24.82;77.62;96662.06;605276;234;64823;-62
2022/08/01 05:22:24;;;;;;;;;;;;;;;24.81;77.72;96661.27;605333;234;69027;-62
2022/08/01 05:24:52;;;;;;;;;;;;;;;24.81;77.75;96658.58;605308;234;66264;-62
2022/08/01 05:27:20;;;;;;;;;;;;;;;24.81;77.77;96649.73;605384;234;64885;-62
2022/08/01 05:29:47;;;;;;;;;;;;;;;24.81;77.82;96650.52;605252;234;68491;-62
2022/08/01 05:32:15;;;;;;;;;;;;;;;24.81;77.81;96655.11;605267;234;66101;-62
2022/08/01 05:34:42;;;;;;;;;;;;;;;24.80;77.89;96654.31;605254;234;62755;-62
2022/08/01 05:37:10;;;;;;;;;;;;;;;24.81;77.87;96650.52;605403;234;69022;-62
2022/08/01 05:39:39;;;;;;;;;;;;;;;24.81;77.89;96655.90;605306;234;66441;-62
2022/08/01 05:42:07;;;;;;;;;;;;;;;24.80;77.92;96653.53;605287;234;65114;-62
2022/08/01 05:44:34;;;;;;;;;;;;;;;24.81;77.96;96647.05;605305;234;69032;-62
2022/08/01 05:47:02;;;;;;;;;;;;;;;24.80;77.92;96657.01;604780;234;68522;-62
2022/08/01 05:49:30;;;;;;;;;;;;;;;24.80;77.75;96654.31;605151;234;62665;-61
2022/08/01 05:51:57;;;;;;;;;;;;;;;24.79;77.05;96657.30;605292;234;68925;-63
2022/08/01 05:54:25;;;;;;;;;;;;;;;24.78;76.23;96656.51;605145;234;68610;-62
2022/08/01 05:56:52;;;;;;;;;;;;;;;24.80;75.97;96657.01;605208;234;64892;-62
2022/08/01 05:59:20;;;;;;;;;;;;;;;24.79;76.29;96646.55;604947;234;68609;-61
2022/08/01 06:01:47;;;;;;;;;;;;;;;24.81;76.37;96663.17;605060;234;66094;-64
2022/08/01 06:04:15;;;;;;;;;;;;;;;24.79;76.66;96639.27;603940;235;63513;-64
2022/08/01 06:06:43;;;;;;;;;;;;;;;24.79;76.51;96635.80;603969;235;66357;-63
2022/08/01 06:09:10;;;;;;;;;;;;;;;24.78;76.50;96635.02;603858;235;68974;-64
2022/08/01 06:11:38;;;;;;;;;;;;;;;24.78;76.49;96640.38;603932;235;62669;-68
2022/08/01 06:14:06;;;;;;;;;;;;;;;24.78;75.58;96639.59;603888;235;68610;-68
2022/08/01 06:16:33;;;;;;;;;;;;;;;24.77;76.30;96638.81;602854;235;68457;-69
2022/08/01 06:19:01;;;;;;;;;;;;;;;24.78;76.28;96643.07;602949;235;65803;-69
2022/08/01 06:21:29;;;;;;;;;;;;;;;24.77;76.57;96644.19;602954;235;69552;-69
2022/08/01 06:23:56;;;;;;;;;;;;;;;24.79;76.74;96641.17;603894;235;66330;-68
2022/08/01 06:26:24;;;;;;;;;;;;;;;24.78;74.30;96635.02;603994;235;65193;-67
2022/08/01 06:28:51;;;;;;;;;;;;;;;24.79;73.47;96643.86;600972;234;68410;-67
2022/08/01 06:31:19;;;;;;;;;;;;;;;24.79;75.22;96633.90;601882;235;68588;-66
2022/08/01 06:33:46;;;;;;;;;;;;;;;24.80;75.78;96643.57;601956;235;62674;-63
2022/08/01 06:36:14;;;;;;;;;;;;;;;24.81;75.26;96636.30;602006;235;66923;-68
2022/08/01 06:38:42;;;;;;;;;;;;;;;24.79;70.69;96636.59;601972;235;66429;-68
2022/08/01 06:41:09;;;;;;;;;;;;;;;24.83;74.26;96641.34;602008;235;62931;-68
2022/08/01 06:43:36;;;;;;;;;;;;;;;24.83;75.02;96644.04;602007;235;66570;-68
2022/08/01 06:46:04;;;;;;;;;;;;;;;24.83;75.93;96635.97;601859;235;66483;-68
2022/08/01 06:48:32;;;;;;;;;;;;;;;24.83;76.49;96639.48;601937;235;62786;-68
2022/08/01 06:51:08;;;;;;;;;;;;;;;24.83;76.79;96647.55;601924;235;66486;-68
2022/08/01 06:53:37;;;;;;;;;;;;;;;24.84;77.08;96651.02;601816;235;66366;-69
2022/08/01 06:56:05;;;;;;;;;;;;;;;24.84;77.53;96645.64;601880;235;65021;-68
2022/08/01 06:58:34;;;;;;;;;;;;;;;24.84;77.43;96646.44;601923;235;66679;-68
2022/08/01 07:01:03;;;;;;;;;;;;;;;24.84;77.45;96651.02;601928;235;68627;-68
2022/08/01 07:03:31;;;;;;;;;;;;;;;24.84;77.68;96645.64;601943;235;63031;-68
2022/08/01 07:05:59;;;;;;;;;;;;;;;24.84;77.77;96642.95;601810;235;68702;-68
2022/08/01 07:08:26;;;;;;;;;;;;;;;24.84;77.86;96643.75;601852;235;66332;-69
2022/08/01 07:10:54;;;;;;;;;;;;;;;24.84;77.94;96654.50;601931;235;62707;-69
2022/08/01 07:13:24;;;;;;;;;;;;;;;24.85;77.98;96649.91;601838;235;68811;-69
2022/08/01 07:15:51;;;;;;;;;;;;;;;24.84;78.08;96654.50;603541;235;68428;-69
2022/08/01 07:18:19;;;;;;;;;;;;;;;24.85;78.07;96655.28;603509;235;63016;-70
2022/08/01 07:20:47;;;;;;;;;;;;;;;24.85;78.19;96664.14;603383;235;68900;-68
2022/08/01 07:23:15;;;;;;;;;;;;;;;24.84;78.05;96662.56;603393;235;66798;-69
2022/08/01 07:25:42;;;;;;;;;;;;;;;24.85;78.29;96671.41;603415;235;62744;-68
2022/08/01 07:28:10;;;;;;;;;;;;;;;24.85;78.40;96660.66;603311;235;69080;-68
2022/08/01 07:30:38;;;;;;;;;;;;;;;24.86;78.48;96657.68;603311;235;68539;-64
2022/08/01 07:33:09;;;;;;;;;;;;;;;24.86;78.54;96660.38;603113;235;42642;-64
2022/08/01 07:35:38;;;;;;;;;;;;;;;24.85;78.61;96644.53;603341;235;68683;-63
2022/08/01 07:38:06;;;;;;;;;;;;;;;24.86;78.74;96646.93;602949;235;68819;-63
2022/08/01 07:40:34;;;;;;;;;;;;;;;24.85;78.73;96642.63;603598;235;62691;-64
2022/08/01 07:43:01;;;;;;;;;;;;;;;24.85;78.77;96648.01;603649;234;66330;-64
2022/08/01 07:45:29;;;;;;;;;;;;;;;24.84;78.84;96643.75;603518;234;66473;-64
2022/08/01 07:47:56;;;;;;;;;;;;;;;24.85;78.88;96637.27;603403;235;65234;-64
2022/08/01 07:50:24;;;;;;;;;;;;;;;24.86;79.02;96646.93;604033;234;68956;-64
2022/08/01 07:52:51;;;;;;;;;;;;;;;24.86;79.03;96619.27;603542;235;68586;-64
2022/08/01 07:55:19;;;;;;;;;;;;;;;24.86;78.76;96641.55;603659;235;64895;-62
2022/08/01 07:57:46;;;;;;;;;;;;;;;24.85;78.88;96642.63;602662;235;68651;-63
2022/08/01 08:00:14;;;;;;;;;;;;;;;24.85;78.93;96642.63;602653;235;68531;-63
2022/08/01 08:02:42;;;;;;;;;;;;;;;24.86;79.05;96646.93;602608;235;65404;-63
2022/08/01 08:05:09;;;;;;;;;;;;;;;24.86;79.02;96649.62;602660;235;68826;-63
2022/08/01 08:07:37;;;;;;;;;;;;;;;24.86;78.99;96641.55;602672;235;66513;-64
2022/08/01 08:10:05;;;;;;;;;;;;;;;24.87;79.00;96650.41;602625;235;62764;-63
2022/08/01 08:12:33;;;;;;;;;;;;;;;24.86;79.15;96654.99;602664;235;66421;-62
2022/08/01 08:15:00;;;;;;;;;;;;;;;24.84;75.93;96649.13;602694;235;66444;-62
2022/08/01 08:17:28;;;;;;;;;;;;;;;24.86;77.07;96652.30;602604;235;65103;-63
2022/08/01 08:19:55;;;;;;;;;;;;;;;24.86;77.56;96657.68;602651;235;68645;-63
2022/08/01 08:22:23;;;;;;;;;;;;;;;24.86;77.92;96652.30;602645;235;69448;-64
2022/08/01 08:24:51;;;;;;;;;;;;;;;24.86;77.62;96651.52;602590;235;62883;-63
2022/08/01 08:27:18;;;;;;;;;;;;;;;24.86;77.26;96656.89;602621;235;68828;-62
2022/08/01 08:29:46;;;;;;;;;;;;;;;24.86;77.46;96651.52;602674;235;66212;-65
2022/08/01 08:32:13;;;;;;;;;;;;;;;24.84;77.29;96654.50;602639;235;64926;-64
2022/08/01 08:34:41;;;;;;;;;;;;;;;24.85;77.27;96653.39;602656;235;68654;-64
2022/08/01 08:37:08;;;;;;;;;;;;;;;24.86;77.28;96656.89;602604;235;68953;-64
2022/08/01 08:39:36;;;;;;;;;;;;;;;24.85;77.25;96650.70;602573;235;66283;-64
2022/08/01 08:42:05;;;;;;;;;;;;;;;24.85;77.29;96652.59;602591;235;66457;-64
2022/08/01 08:44:33;;;;;;;;;;;;;;;24.84;77.32;96659.88;601003;235;68642;-64
2022/08/01 08:47:05;;;;;;;;;;;;;;;24.85;77.26;96669.52;601878;235;65713;-65
2022/08/01 08:49:32;;;;;;;;;;;;;;;24.85;77.18;96679.47;600848;235;69045;-65
2022/08/01 08:52:01;;;;;;;;;;;;;;;24.85;77.21;96676.78;602691;235;68752;-65
2022/08/01 08:54:30;;;;;;;;;;;;;;;24.85;77.16;96666.83;602587;235;65084;-67
2022/08/01 08:56:58;;;;;;;;;;;;;;;24.84;77.19;96670.63;602663;235;68468;-67
2022/08/01 08:59:27;;;;;;;;;;;;;;;24.85;77.10;96668.72;602467;235;66260;-68
2022/08/01 09:01:55;;;;;;;;;;;;;;;24.84;77.17;96678.69;602604;235;64883;-67
2022/08/01 09:04:23;;;;;;;;;;;;;;;24.84;77.12;96670.63;602616;235;68952;-67
2022/08/01 09:06:52;;;;;;;;;;;;;;;24.84;77.14;96653.70;602619;235;66671;-68
2022/08/01 09:09:20;;;;;;;;;;;;;;;24.84;76.94;96659.08;602638;235;65050;-69
2022/08/01 09:11:47;;;;;;;;;;;;;;;24.84;76.70;96677.89;602653;235;66251;-69
2022/08/01 09:14:25;;;;;;;;;;;;;;;24.97;76.44;96672.47;635920;222;35226;-69
2022/08/01 09:16:54;;;;;;;;;;;;;;;24.83;76.19;96669.05;628078;226;62731;-68
2022/08/01 09:19:22;;;;;;;;;;;;;;;24.83;75.85;96663.67;625694;226;62292;-69
2022/08/01 09:21:59;;;;;;;;;;;;;;;24.82;75.79;96667.44;627608;226;61895;-69
2022/08/01 09:24:27;;;;;;;;;;;;;;;24.81;75.49;96666.65;624249;227;62668;-69
2022/08/01 09:26:55;;;;;;;;;;;;;;;24.81;75.27;96677.39;624231;227;64649;-69
2022/08/01 09:29:23;;;;;;;;;;;;;;;24.81;75.12;96661.27;624202;227;62010;-69
2022/08/01 09:31:51;;;;;;;;;;;;;;;24.82;75.10;96672.81;624172;227;65199;-69
2022/08/01 09:34:26;;;;;;;;;;;;;;;24.81;74.99;96661.27;624303;227;64547;-69
2022/08/01 09:37:00;;;;;;;;;;;;;;;24.81;75.02;96669.34;621615;227;65362;-69
2022/08/01 09:39:26;;;;;;;;;;;;;;;24.81;75.00;96655.11;623971;227;63627;-69
2022/08/01 09:41:55;;;;;;;;;;;;;;;24.81;74.96;96671.23;624206;227;64712;-69
2022/08/01 09:44:42;;;;;;;;;;;;;;;24.81;75.04;96655.11;624168;227;64185;-69
2022/08/01 09:47:10;;;;;;;;;;;;;;;24.80;74.74;96661.59;623970;227;64939;-68
2022/08/01 09:49:38;;;;;;;;;;;;;;;24.80;74.83;96661.59;624210;227;62205;-68
2022/08/01 09:52:12;;;;;;;;;;;;;;;24.80;74.87;96645.47;624136;227;62292;-69
2022/08/01 09:54:40;;;;;;;;;;;;;;;24.80;74.96;96642.78;623743;227;64880;-71
2022/08/01 09:57:17;;;;;;;;;;;;;;;24.74;74.88;96625.95;624033;227;44327;-69
2022/08/01 09:59:45;;;;;;;;;;;;;;;24.79;74.81;96665.36;624212;227;64332;-70
2022/08/01 10:02:15;;;;;;;;;;;;;;;24.79;74.75;96652.71;624241;227;63720;-71
2022/08/01 10:04:49;;;;;;;;;;;;;;;24.79;74.93;96652.71;624037;227;66959;-70
2022/08/01 10:07:17;;;;;;;;;;;;;;;24.79;74.87;96636.59;624187;227;64276;-71
2022/08/01 10:09:46;;;;;;;;;;;;;;;24.79;74.95;96644.65;624243;227;64848;-69
2022/08/01 10:12:18;;;;;;;;;;;;;;;24.80;74.86;96648.95;624110;227;65441;-67
2022/08/01 10:14:49;;;;;;;;;;;;;;;24.80;74.90;96658.91;624202;227;62961;-68
2022/08/01 10:17:17;;;;;;;;;;;;;;;24.80;74.94;96658.91;624177;227;62699;-68
2022/08/01 10:19:49;;;;;;;;;;;;;;;24.79;75.05;96660.77;623938;227;43674;-68
2022/08/01 10:22:19;;;;;;;;;;;;;;;24.80;74.90;96648.16;624185;227;64819;-68
2022/08/01 10:24:48;;;;;;;;;;;;;;;24.80;74.96;96642.78;624039;227;65009;-68
2022/08/01 10:27:18;;;;;;;;;;;;;;;24.80;74.81;96642.78;623998;227;64608;-69
2022/08/01 10:29:55;;;;;;;;;;;;;;;24.80;74.97;96653.53;624051;227;64358;-69
2022/08/01 10:32:25;;;;;;;;;;;;;;;24.80;74.87;96637.41;624043;227;65040;-70
2022/08/01 10:34:53;;;;;;;;;;;;;;;24.80;74.90;96642.78;623998;227;64232;-70
2022/08/01 10:37:20;;;;;;;;;;;;;;;24.79;74.93;96644.65;624105;227;62274;-71
2022/08/01 10:39:56;;;;;;;;;;;;;;;24.79;75.11;96635.80;623752;227;44716;-70
2022/08/01 10:42:23;;;;;;;;;;;;;;;24.80;75.07;96634.72;624133;227;64623;-68
2022/08/01 10:44:52;;;;;;;;;;;;;;;24.79;75.06;96647.34;623994;227;62220;-68
2022/08/01 10:47:21;;;;;;;;;;;;;;;24.79;75.13;96625.84;624032;227;65099;-69
2022/08/01 10:49:50;;;;;;;;;;;;;;;24.80;75.13;96632.82;623975;227;64761;-68
2022/08/01 10:52:21;;;;;;;;;;;;;;;24.80;75.16;96629.34;624042;227;64255;-70
2022/08/01 10:54:48;;;;;;;;;;;;;;;24.80;74.99;96634.72;624046;227;65067;-69
2022/08/01 10:57:17;;;;;;;;;;;;;;;24.79;75.05;96644.65;624066;227;64417;-69
2022/08/01 10:59:46;;;;;;;;;;;;;;;24.79;75.07;96646.55;624182;227;64208;-69
2022/08/01 11:02:15;;;;;;;;;;;;;;;24.80;75.08;96637.41;623874;227;62763;-69
2022/08/01 11:04:54;;;;;;;;;;;;;;;24.80;75.09;96630.13;623613;227;62195;-69
2022/08/01 11:07:26;;;;;;;;;;;;;;;24.80;75.07;96632.03;624088;227;64616;-69
2022/08/01 11:10:07;;;;;;;;;;;;;;;24.81;75.08;96633.61;623526;227;62855;-69
2022/08/01 11:12:41;;;;;;;;;;;;;;;24.80;75.19;96638.20;623893;227;62510;-69
2022/08/01 11:15:13;;;;;;;;;;;;;;;24.80;75.20;96642.78;617281;227;64166;-69
2022/08/01 11:17:47;;;;;;;;;;;;;;;24.79;75.19;96636.59;624079;227;62661;-70
2022/08/01 11:20:12;;;;;;;;;;;;;;;24.80;75.22;96632.03;623813;227;64805;-66
2022/08/01 11:23:06;;;;;;;;;;;;;;;24.79;75.22;96617.77;623943;227;65565;-67
2022/08/01 11:25:41;;;;;;;;;;;;;;;24.81;75.41;96628.23;624082;227;47320;-68
2022/08/01 11:28:17;;;;;;;;;;;;;;;24.80;75.40;96614.00;623968;227;65005;-69
2022/08/01 11:30:45;;;;;;;;;;;;;;;24.79;75.40;96615.09;624067;227;64419;-68
2022/08/01 11:33:14;;;;;;;;;;;;;;;24.80;75.45;96615.91;623964;227;62932;-68
2022/08/01 11:35:59;;;;;;;;;;;;;;;24.79;75.48;96623.15;624193;227;64534;-69
2022/08/01 11:38:29;;;;;;;;;;;;;;;24.79;75.40;96611.61;624174;227;64358;-69
2022/08/01 11:41:13;;;;;;;;;;;;;;;24.78;75.38;96602.77;624220;227;43757;-68
2022/08/01 11:43:58;;;;;;;;;;;;;;;24.79;75.43;96614.30;624143;227;62320;-69
2022/08/01 11:46:44;;;;;;;;;;;;;;;24.79;75.38;96611.61;624193;227;64545;-69
2022/08/01 11:49:32;;;;;;;;;;;;;;;24.79;75.39;96607.02;624175;227;63816;-69
2022/08/01 11:52:19;;;;;;;;;;;;;;;24.79;75.25;96603.55;624186;227;64677;-69
2022/08/01 11:54:49;;;;;;;;;;;;;;;24.78;75.37;96600.07;624056;227;46754;-68
2022/08/01 11:57:20;;;;;;;;;;;;;;;24.78;75.41;96593.91;624192;227;45628;-67
2022/08/01 11:59:49;;;;;;;;;;;;;;;24.78;75.38;96602.77;624138;227;62464;-68
2022/08/01 12:02:18;;;;;;;;;;;;;;;24.78;75.43;96597.39;624164;227;64314;-67
2022/08/01 12:04:48;;;;;;;;;;;;;;;24.78;75.43;96604.66;624170;227;62888;-68
2022/08/01 12:07:16;;;;;;;;;;;;;;;24.78;75.36;96602.77;624027;227;62501;-61
2022/08/01 12:09:43;;;;;;;;;;;;;;;24.78;75.20;96601.97;624192;227;64487;-61
2022/08/01 12:12:11;;;;;;;;;;;;;;;24.78;75.37;96594.70;624088;227;65137;-61
2022/08/01 12:14:39;;;;;;;;;;;;;;;24.78;75.21;96586.64;624171;227;64465;-63
2022/08/01 12:17:06;;;;;;;;;;;;;;;24.78;75.15;96599.28;624190;227;64396;-62
2022/08/01 12:19:36;;;;;;;;;;;;;;;24.79;75.16;96598.17;624158;227;65038;-63
2022/08/01 12:22:06;;;;;;;;;;;;;;;24.79;75.07;96587.42;623934;227;64706;-63
2022/08/01 12:24:35;;;;;;;;;;;;;;;24.79;75.28;96598.97;624179;227;64307;-62
2022/08/01 12:27:03;;;;;;;;;;;;;;;24.79;75.11;96590.90;624089;227;63042;-62
2022/08/01 12:29:38;;;;;;;;;;;;;;;24.78;75.11;96592.02;624148;227;62438;-68
2022/08/01 12:32:05;;;;;;;;;;;;;;;24.79;75.11;96587.42;623863;227;62952;-67
2022/08/01 12:34:34;;;;;;;;;;;;;;;24.79;75.14;96587.42;624080;227;65288;-69
2022/08/01 12:37:02;;;;;;;;;;;;;;;24.81;67.73;96593.30;624183;227;64613;-69
2022/08/01 12:39:31;;;;;;;;;;;;;;;24.84;70.84;96584.62;624111;227;61232;-69
2022/08/01 12:41:58;;;;;;;;;;;;;;;24.84;73.41;96581.93;624137;227;64915;-69
2022/08/01 12:44:27;;;;;;;;;;;;;;;24.83;74.52;96582.22;624162;227;64446;-68
2022/08/01 12:46:55;;;;;;;;;;;;;;;24.82;74.98;96589.50;624253;227;64530;-69
2022/08/01 12:49:23;;;;;;;;;;;;;;;24.82;75.29;96584.13;624044;227;64994;-69
2022/08/01 12:51:51;;;;;;;;;;;;;;;24.81;75.52;96586.02;624155;227;64656;-69
2022/08/01 12:54:18;;;;;;;;;;;;;;;24.81;75.67;96579.86;624132;227;64361;-69
2022/08/01 12:56:46;;;;;;;;;;;;;;;24.81;75.88;96585.23;624127;227;62649;-69
2022/08/01 12:59:20;;;;;;;;;;;;;;;24.80;75.75;96576.38;624047;227;62294;-68